sensor_id;sensor_type;location;lat;lon;timestamp;P1;durP1;ratioP1;P2;durP2;ratioP2
18013;SDS011;9132;47.946;10.394;2023-12-14T00:01:40;2.73;;;2.53;;
18013;SDS011;9132;47.946;10.394;2023-12-14T00:04:08;4.43;;;3.13;;
18013;SDS011;9132;47.946;10.394;2023-12-14T00:06:34;2.90;;;2.60;;
18013;SDS011;9132;47.946;10.394;2023-12-14T00:09:01;3.13;;;2.83;;
18013;SDS011;9132;47.946;10.394;2023-12-14T00:11:28;2.90;;;2.70;;
18013;SDS011;9132;47.946;10.394;2023-12-14T00:13:55;2.90;;;2.67;;
18013;SDS011;9132;47.946;10.394;2023-12-14T00:16:22;3.07;;;2.80;;
18013;SDS011;9132;47.946;10.394;2023-12-14T00:18:48;3.63;;;2.80;;
18013;SDS011;9132;47.946;10.394;2023-12-14T00:21:18;3.57;;;3.07;;
18013;SDS011;9132;47.946;10.394;2023-12-14T00:23:46;2.93;;;2.73;;
18013;SDS011;9132;47.946;10.394;2023-12-14T00:26:13;3.77;;;3.13;;
18013;SDS011;9132;47.946;10.394;2023-12-14T00:28:39;3.87;;;3.00;;
18013;SDS011;9132;47.946;10.394;2023-12-14T00:31:06;3.50;;;3.20;;
18013;SDS011;9132;47.946;10.394;2023-12-14T00:33:32;3.57;;;3.27;;
18013;SDS011;9132;47.946;10.394;2023-12-14T00:35:59;3.77;;;3.40;;
18013;SDS011;9132;47.946;10.394;2023-12-14T00:38:27;3.83;;;3.37;;
18013;SDS011;9132;47.946;10.394;2023-12-14T00:40:53;3.40;;;3.10;;
18013;SDS011;9132;47.946;10.394;2023-12-14T00:43:20;5.17;;;3.47;;
18013;SDS011;9132;47.946;10.394;2023-12-14T00:45:49;4.97;;;3.57;;
18013;SDS011;9132;47.946;10.394;2023-12-14T00:48:17;3.47;;;2.60;;
18013;SDS011;9132;47.946;10.394;2023-12-14T00:50:45;4.50;;;3.07;;
18013;SDS011;9132;47.946;10.394;2023-12-14T00:53:12;3.73;;;3.27;;
18013;SDS011;9132;47.946;10.394;2023-12-14T00:55:40;2.93;;;2.67;;
18013;SDS011;9132;47.946;10.394;2023-12-14T00:58:08;2.83;;;2.60;;
18013;SDS011;9132;47.946;10.394;2023-12-14T01:00:35;3.30;;;2.90;;
18013;SDS011;9132;47.946;10.394;2023-12-14T01:03:01;3.63;;;2.93;;
18013;SDS011;9132;47.946;10.394;2023-12-14T01:05:28;3.70;;;2.73;;
18013;SDS011;9132;47.946;10.394;2023-12-14T01:07:55;4.50;;;2.17;;
18013;SDS011;9132;47.946;10.394;2023-12-14T01:10:22;2.90;;;2.30;;
18013;SDS011;9132;47.946;10.394;2023-12-14T01:12:50;3.70;;;2.73;;
18013;SDS011;9132;47.946;10.394;2023-12-14T01:15:17;3.73;;;2.10;;
18013;SDS011;9132;47.946;10.394;2023-12-14T01:17:43;2.00;;;1.80;;
18013;SDS011;9132;47.946;10.394;2023-12-14T01:20:13;2.20;;;2.00;;
18013;SDS011;9132;47.946;10.394;2023-12-14T01:22:39;1.87;;;1.37;;
18013;SDS011;9132;47.946;10.394;2023-12-14T01:25:07;1.30;;;1.00;;
18013;SDS011;9132;47.946;10.394;2023-12-14T01:27:34;1.23;;;1.10;;
18013;SDS011;9132;47.946;10.394;2023-12-14T01:30:02;0.70;;;0.70;;
18013;SDS011;9132;47.946;10.394;2023-12-14T01:32:29;1.07;;;1.00;;
18013;SDS011;9132;47.946;10.394;2023-12-14T01:34:55;0.70;;;0.70;;
18013;SDS011;9132;47.946;10.394;2023-12-14T01:37:23;1.10;;;1.00;;
18013;SDS011;9132;47.946;10.394;2023-12-14T01:39:49;1.20;;;1.00;;
18013;SDS011;9132;47.946;10.394;2023-12-14T01:42:16;1.20;;;1.10;;
18013;SDS011;9132;47.946;10.394;2023-12-14T01:44:42;1.33;;;1.23;;
18013;SDS011;9132;47.946;10.394;2023-12-14T01:47:10;1.50;;;1.40;;
18013;SDS011;9132;47.946;10.394;2023-12-14T01:49:37;2.07;;;1.87;;
18013;SDS011;9132;47.946;10.394;2023-12-14T01:52:04;1.80;;;1.60;;
18013;SDS011;9132;47.946;10.394;2023-12-14T01:54:31;2.30;;;1.47;;
18013;SDS011;9132;47.946;10.394;2023-12-14T01:56:58;2.40;;;2.00;;
18013;SDS011;9132;47.946;10.394;2023-12-14T01:59:25;3.20;;;1.40;;
18013;SDS011;9132;47.946;10.394;2023-12-14T02:01:52;1.57;;;1.20;;
18013;SDS011;9132;47.946;10.394;2023-12-14T02:04:23;3.83;;;1.50;;
18013;SDS011;9132;47.946;10.394;2023-12-14T02:06:50;3.07;;;1.80;;
18013;SDS011;9132;47.946;10.394;2023-12-14T02:09:17;2.50;;;2.30;;
18013;SDS011;9132;47.946;10.394;2023-12-14T02:11:44;3.20;;;2.40;;
18013;SDS011;9132;47.946;10.394;2023-12-14T02:14:11;3.93;;;2.60;;
18013;SDS011;9132;47.946;10.394;2023-12-14T02:16:38;3.30;;;2.90;;
18013;SDS011;9132;47.946;10.394;2023-12-14T02:19:04;2.97;;;2.50;;
18013;SDS011;9132;47.946;10.394;2023-12-14T02:21:32;5.37;;;3.10;;
18013;SDS011;9132;47.946;10.394;2023-12-14T02:24:00;3.17;;;2.87;;
18013;SDS011;9132;47.946;10.394;2023-12-14T02:26:28;3.90;;;3.03;;
18013;SDS011;9132;47.946;10.394;2023-12-14T02:28:55;6.07;;;3.30;;
18013;SDS011;9132;47.946;10.394;2023-12-14T02:31:22;3.20;;;2.90;;
18013;SDS011;9132;47.946;10.394;2023-12-14T02:33:49;3.90;;;3.50;;
18013;SDS011;9132;47.946;10.394;2023-12-14T02:36:15;4.10;;;3.70;;
18013;SDS011;9132;47.946;10.394;2023-12-14T02:38:42;5.37;;;3.60;;
18013;SDS011;9132;47.946;10.394;2023-12-14T02:41:11;5.10;;;3.73;;
18013;SDS011;9132;47.946;10.394;2023-12-14T02:43:37;5.50;;;3.90;;
18013;SDS011;9132;47.946;10.394;2023-12-14T02:46:06;4.30;;;3.60;;
18013;SDS011;9132;47.946;10.394;2023-12-14T02:48:33;4.97;;;4.00;;
18013;SDS011;9132;47.946;10.394;2023-12-14T02:51:00;4.93;;;4.33;;
18013;SDS011;9132;47.946;10.394;2023-12-14T02:53:27;4.23;;;3.83;;
18013;SDS011;9132;47.946;10.394;2023-12-14T02:55:54;4.63;;;3.83;;
18013;SDS011;9132;47.946;10.394;2023-12-14T02:58:21;6.60;;;4.50;;
18013;SDS011;9132;47.946;10.394;2023-12-14T03:00:49;4.93;;;4.30;;
18013;SDS011;9132;47.946;10.394;2023-12-14T03:03:15;5.13;;;4.23;;
18013;SDS011;9132;47.946;10.394;2023-12-14T03:05:42;7.07;;;4.83;;
18013;SDS011;9132;47.946;10.394;2023-12-14T03:08:08;6.97;;;4.90;;
18013;SDS011;9132;47.946;10.394;2023-12-14T03:10:35;5.00;;;4.50;;
18013;SDS011;9132;47.946;10.394;2023-12-14T03:13:02;6.83;;;5.23;;
18013;SDS011;9132;47.946;10.394;2023-12-14T03:15:30;6.00;;;5.20;;
18013;SDS011;9132;47.946;10.394;2023-12-14T03:17:57;5.53;;;5.03;;
18013;SDS011;9132;47.946;10.394;2023-12-14T03:20:24;5.77;;;5.17;;
18013;SDS011;9132;47.946;10.394;2023-12-14T03:22:52;5.67;;;5.10;;
18013;SDS011;9132;47.946;10.394;2023-12-14T03:25:21;5.90;;;5.30;;
18013;SDS011;9132;47.946;10.394;2023-12-14T03:27:48;4.90;;;4.40;;
18013;SDS011;9132;47.946;10.394;2023-12-14T03:30:15;7.27;;;4.80;;
18013;SDS011;9132;47.946;10.394;2023-12-14T03:32:43;4.63;;;4.07;;
18013;SDS011;9132;47.946;10.394;2023-12-14T03:35:10;5.10;;;4.33;;
18013;SDS011;9132;47.946;10.394;2023-12-14T03:37:36;5.13;;;4.63;;
18013;SDS011;9132;47.946;10.394;2023-12-14T03:40:04;5.90;;;4.40;;
18013;SDS011;9132;47.946;10.394;2023-12-14T03:42:32;5.77;;;4.47;;
18013;SDS011;9132;47.946;10.394;2023-12-14T03:44:58;6.27;;;4.93;;
18013;SDS011;9132;47.946;10.394;2023-12-14T03:47:26;5.30;;;4.80;;
18013;SDS011;9132;47.946;10.394;2023-12-14T03:49:54;5.53;;;4.80;;
18013;SDS011;9132;47.946;10.394;2023-12-14T03:52:21;5.73;;;4.87;;
18013;SDS011;9132;47.946;10.394;2023-12-14T03:54:50;6.60;;;4.73;;
18013;SDS011;9132;47.946;10.394;2023-12-14T03:57:19;5.07;;;4.43;;
18013;SDS011;9132;47.946;10.394;2023-12-14T03:59:46;5.60;;;5.10;;
18013;SDS011;9132;47.946;10.394;2023-12-14T04:02:13;5.87;;;5.00;;
18013;SDS011;9132;47.946;10.394;2023-12-14T04:04:39;7.63;;;5.80;;
18013;SDS011;9132;47.946;10.394;2023-12-14T04:07:07;5.20;;;4.70;;
18013;SDS011;9132;47.946;10.394;2023-12-14T04:09:34;5.77;;;4.83;;
18013;SDS011;9132;47.946;10.394;2023-12-14T04:12:00;6.57;;;4.83;;
18013;SDS011;9132;47.946;10.394;2023-12-14T04:14:27;5.70;;;4.43;;
18013;SDS011;9132;47.946;10.394;2023-12-14T04:16:54;5.53;;;4.53;;
18013;SDS011;9132;47.946;10.394;2023-12-14T04:19:21;4.73;;;4.33;;
18013;SDS011;9132;47.946;10.394;2023-12-14T04:21:47;7.03;;;4.97;;
18013;SDS011;9132;47.946;10.394;2023-12-14T04:24:15;5.70;;;4.67;;
18013;SDS011;9132;47.946;10.394;2023-12-14T04:26:42;5.80;;;5.20;;
18013;SDS011;9132;47.946;10.394;2023-12-14T04:29:08;5.27;;;4.77;;
18013;SDS011;9132;47.946;10.394;2023-12-14T04:31:35;5.93;;;5.43;;
18013;SDS011;9132;47.946;10.394;2023-12-14T04:34:01;5.60;;;5.10;;
18013;SDS011;9132;47.946;10.394;2023-12-14T04:36:28;5.20;;;4.70;;
18013;SDS011;9132;47.946;10.394;2023-12-14T04:38:55;5.23;;;4.73;;
18013;SDS011;9132;47.946;10.394;2023-12-14T04:41:23;4.73;;;4.13;;
18013;SDS011;9132;47.946;10.394;2023-12-14T04:43:50;4.73;;;4.17;;
18013;SDS011;9132;47.946;10.394;2023-12-14T04:46:18;5.40;;;4.20;;
18013;SDS011;9132;47.946;10.394;2023-12-14T04:48:45;4.43;;;4.03;;
18013;SDS011;9132;47.946;10.394;2023-12-14T04:51:12;4.17;;;3.73;;
18013;SDS011;9132;47.946;10.394;2023-12-14T04:53:39;4.30;;;3.83;;
18013;SDS011;9132;47.946;10.394;2023-12-14T04:56:09;4.00;;;3.60;;
18013;SDS011;9132;47.946;10.394;2023-12-14T04:58:39;4.83;;;4.00;;
18013;SDS011;9132;47.946;10.394;2023-12-14T05:01:06;4.23;;;3.83;;
18013;SDS011;9132;47.946;10.394;2023-12-14T05:03:34;4.53;;;4.10;;
18013;SDS011;9132;47.946;10.394;2023-12-14T05:06:01;4.37;;;3.97;;
18013;SDS011;9132;47.946;10.394;2023-12-14T05:08:28;4.33;;;3.93;;
18013;SDS011;9132;47.946;10.394;2023-12-14T05:10:54;4.10;;;3.70;;
18013;SDS011;9132;47.946;10.394;2023-12-14T05:13:21;4.00;;;2.90;;
18013;SDS011;9132;47.946;10.394;2023-12-14T05:15:49;3.53;;;3.23;;
18013;SDS011;9132;47.946;10.394;2023-12-14T05:18:17;3.27;;;2.97;;
18013;SDS011;9132;47.946;10.394;2023-12-14T05:20:44;3.13;;;2.43;;
18013;SDS011;9132;47.946;10.394;2023-12-14T05:23:10;3.30;;;2.97;;
18013;SDS011;9132;47.946;10.394;2023-12-14T05:25:38;3.30;;;3.00;;
18013;SDS011;9132;47.946;10.394;2023-12-14T05:28:05;3.10;;;2.80;;
18013;SDS011;9132;47.946;10.394;2023-12-14T05:30:31;3.40;;;3.10;;
18013;SDS011;9132;47.946;10.394;2023-12-14T05:32:59;3.07;;;2.77;;
18013;SDS011;9132;47.946;10.394;2023-12-14T05:35:28;3.70;;;3.10;;
18013;SDS011;9132;47.946;10.394;2023-12-14T05:37:54;3.23;;;2.87;;
18013;SDS011;9132;47.946;10.394;2023-12-14T05:40:22;3.50;;;3.20;;
18013;SDS011;9132;47.946;10.394;2023-12-14T05:42:49;3.77;;;2.87;;
18013;SDS011;9132;47.946;10.394;2023-12-14T05:45:15;3.03;;;2.70;;
18013;SDS011;9132;47.946;10.394;2023-12-14T05:47:43;3.30;;;3.00;;
18013;SDS011;9132;47.946;10.394;2023-12-14T05:50:11;3.20;;;2.90;;
18013;SDS011;9132;47.946;10.394;2023-12-14T05:52:38;3.10;;;2.80;;
18013;SDS011;9132;47.946;10.394;2023-12-14T05:55:07;3.70;;;3.13;;
18013;SDS011;9132;47.946;10.394;2023-12-14T05:57:34;3.40;;;3.10;;
18013;SDS011;9132;47.946;10.394;2023-12-14T06:00:00;3.97;;;3.57;;
18013;SDS011;9132;47.946;10.394;2023-12-14T06:02:28;3.93;;;3.53;;
18013;SDS011;9132;47.946;10.394;2023-12-14T06:04:55;4.10;;;3.40;;
18013;SDS011;9132;47.946;10.394;2023-12-14T06:07:24;3.67;;;3.37;;
18013;SDS011;9132;47.946;10.394;2023-12-14T06:09:51;4.03;;;3.63;;
18013;SDS011;9132;47.946;10.394;2023-12-14T06:12:18;4.83;;;3.67;;
18013;SDS011;9132;47.946;10.394;2023-12-14T06:14:44;3.77;;;3.27;;
18013;SDS011;9132;47.946;10.394;2023-12-14T06:17:11;4.10;;;3.70;;
18013;SDS011;9132;47.946;10.394;2023-12-14T06:19:37;4.00;;;3.63;;
18013;SDS011;9132;47.946;10.394;2023-12-14T06:22:04;4.30;;;3.90;;
18013;SDS011;9132;47.946;10.394;2023-12-14T06:24:32;5.40;;;4.90;;
18013;SDS011;9132;47.946;10.394;2023-12-14T06:26:59;7.17;;;5.53;;
18013;SDS011;9132;47.946;10.394;2023-12-14T06:29:25;3.93;;;3.53;;
18013;SDS011;9132;47.946;10.394;2023-12-14T06:31:52;3.40;;;3.10;;
18013;SDS011;9132;47.946;10.394;2023-12-14T06:34:19;12.83;;;11.83;;
18013;SDS011;9132;47.946;10.394;2023-12-14T06:36:45;7.27;;;6.67;;
18013;SDS011;9132;47.946;10.394;2023-12-14T06:39:12;4.17;;;3.50;;
18013;SDS011;9132;47.946;10.394;2023-12-14T06:41:41;4.00;;;3.37;;
18013;SDS011;9132;47.946;10.394;2023-12-14T06:44:07;3.77;;;3.47;;
18013;SDS011;9132;47.946;10.394;2023-12-14T06:46:34;5.27;;;4.77;;
18013;SDS011;9132;47.946;10.394;2023-12-14T06:49:01;3.97;;;3.17;;
18013;SDS011;9132;47.946;10.394;2023-12-14T06:51:28;4.10;;;3.70;;
18013;SDS011;9132;47.946;10.394;2023-12-14T06:53:54;4.57;;;3.80;;
18013;SDS011;9132;47.946;10.394;2023-12-14T06:56:21;4.23;;;3.10;;
18013;SDS011;9132;47.946;10.394;2023-12-14T06:58:49;3.67;;;3.20;;
18013;SDS011;9132;47.946;10.394;2023-12-14T07:01:17;3.73;;;3.30;;
18013;SDS011;9132;47.946;10.394;2023-12-14T07:03:44;4.27;;;3.53;;
18013;SDS011;9132;47.946;10.394;2023-12-14T07:06:11;3.30;;;3.00;;
18013;SDS011;9132;47.946;10.394;2023-12-14T07:08:39;3.87;;;3.57;;
18013;SDS011;9132;47.946;10.394;2023-12-14T07:11:06;4.73;;;3.20;;
18013;SDS011;9132;47.946;10.394;2023-12-14T07:13:33;3.67;;;2.93;;
18013;SDS011;9132;47.946;10.394;2023-12-14T07:16:02;4.43;;;3.07;;
18013;SDS011;9132;47.946;10.394;2023-12-14T07:18:30;3.80;;;3.20;;
18013;SDS011;9132;47.946;10.394;2023-12-14T07:20:56;3.30;;;2.93;;
18013;SDS011;9132;47.946;10.394;2023-12-14T07:23:23;3.50;;;2.90;;
18013;SDS011;9132;47.946;10.394;2023-12-14T07:25:50;2.80;;;2.60;;
18013;SDS011;9132;47.946;10.394;2023-12-14T07:28:16;2.40;;;2.20;;
18013;SDS011;9132;47.946;10.394;2023-12-14T07:30:43;4.23;;;2.73;;
18013;SDS011;9132;47.946;10.394;2023-12-14T07:33:10;3.30;;;2.37;;
18013;SDS011;9132;47.946;10.394;2023-12-14T07:35:37;2.67;;;2.40;;
18013;SDS011;9132;47.946;10.394;2023-12-14T07:38:03;3.33;;;2.77;;
18013;SDS011;9132;47.946;10.394;2023-12-14T07:40:30;3.23;;;2.37;;
18013;SDS011;9132;47.946;10.394;2023-12-14T07:42:56;2.90;;;2.33;;
18013;SDS011;9132;47.946;10.394;2023-12-14T07:45:23;3.23;;;2.93;;
18013;SDS011;9132;47.946;10.394;2023-12-14T07:47:50;3.50;;;3.07;;
18013;SDS011;9132;47.946;10.394;2023-12-14T07:50:17;4.10;;;3.17;;
18013;SDS011;9132;47.946;10.394;2023-12-14T07:52:44;4.00;;;3.50;;
18013;SDS011;9132;47.946;10.394;2023-12-14T07:55:11;3.97;;;3.40;;
18013;SDS011;9132;47.946;10.394;2023-12-14T07:57:38;4.50;;;3.23;;
18013;SDS011;9132;47.946;10.394;2023-12-14T08:00:05;3.90;;;3.50;;
18013;SDS011;9132;47.946;10.394;2023-12-14T08:02:33;4.67;;;3.47;;
18013;SDS011;9132;47.946;10.394;2023-12-14T08:05:00;3.43;;;3.00;;
18013;SDS011;9132;47.946;10.394;2023-12-14T08:07:28;3.37;;;2.80;;
18013;SDS011;9132;47.946;10.394;2023-12-14T08:09:54;3.73;;;3.13;;
18013;SDS011;9132;47.946;10.394;2023-12-14T08:12:21;3.47;;;3.00;;
18013;SDS011;9132;47.946;10.394;2023-12-14T08:14:48;2.97;;;2.63;;
18013;SDS011;9132;47.946;10.394;2023-12-14T08:17:14;3.23;;;2.50;;
18013;SDS011;9132;47.946;10.394;2023-12-14T08:19:41;2.57;;;2.37;;
18013;SDS011;9132;47.946;10.394;2023-12-14T08:22:08;3.37;;;2.70;;
18013;SDS011;9132;47.946;10.394;2023-12-14T08:24:38;3.77;;;3.20;;
18013;SDS011;9132;47.946;10.394;2023-12-14T08:27:05;3.37;;;3.07;;
18013;SDS011;9132;47.946;10.394;2023-12-14T08:29:31;4.20;;;3.27;;
18013;SDS011;9132;47.946;10.394;2023-12-14T08:31:58;4.60;;;3.77;;
18013;SDS011;9132;47.946;10.394;2023-12-14T08:34:25;4.00;;;3.43;;
18013;SDS011;9132;47.946;10.394;2023-12-14T08:36:51;4.03;;;3.37;;
18013;SDS011;9132;47.946;10.394;2023-12-14T08:39:18;4.33;;;3.73;;
18013;SDS011;9132;47.946;10.394;2023-12-14T08:41:46;5.23;;;3.90;;
18013;SDS011;9132;47.946;10.394;2023-12-14T08:44:13;4.00;;;3.60;;
18013;SDS011;9132;47.946;10.394;2023-12-14T08:46:40;3.93;;;3.47;;
18013;SDS011;9132;47.946;10.394;2023-12-14T08:49:08;4.23;;;3.73;;
18013;SDS011;9132;47.946;10.394;2023-12-14T08:51:34;4.03;;;3.30;;
18013;SDS011;9132;47.946;10.394;2023-12-14T08:54:01;4.50;;;4.10;;
18013;SDS011;9132;47.946;10.394;2023-12-14T08:56:27;4.20;;;3.60;;
18013;SDS011;9132;47.946;10.394;2023-12-14T08:58:55;5.47;;;4.73;;
18013;SDS011;9132;47.946;10.394;2023-12-14T09:01:22;4.13;;;3.60;;
18013;SDS011;9132;47.946;10.394;2023-12-14T09:03:49;4.53;;;4.10;;
18013;SDS011;9132;47.946;10.394;2023-12-14T09:06:16;5.70;;;3.27;;
18013;SDS011;9132;47.946;10.394;2023-12-14T09:08:43;3.10;;;2.63;;
18013;SDS011;9132;47.946;10.394;2023-12-14T09:11:10;2.60;;;2.40;;
18013;SDS011;9132;47.946;10.394;2023-12-14T09:13:37;3.63;;;3.30;;
18013;SDS011;9132;47.946;10.394;2023-12-14T09:16:05;3.83;;;3.10;;
18013;SDS011;9132;47.946;10.394;2023-12-14T09:18:32;3.73;;;3.20;;
18013;SDS011;9132;47.946;10.394;2023-12-14T09:20:59;5.73;;;3.70;;
18013;SDS011;9132;47.946;10.394;2023-12-14T09:23:25;2.97;;;2.17;;
18013;SDS011;9132;47.946;10.394;2023-12-14T09:25:52;2.23;;;1.60;;
18013;SDS011;9132;47.946;10.394;2023-12-14T09:28:18;1.77;;;1.57;;
18013;SDS011;9132;47.946;10.394;2023-12-14T09:30:45;2.60;;;1.60;;
18013;SDS011;9132;47.946;10.394;2023-12-14T09:33:13;1.70;;;1.60;;
18013;SDS011;9132;47.946;10.394;2023-12-14T09:35:39;2.90;;;2.00;;
18013;SDS011;9132;47.946;10.394;2023-12-14T09:38:06;2.53;;;2.00;;
18013;SDS011;9132;47.946;10.394;2023-12-14T09:40:33;2.23;;;1.90;;
18013;SDS011;9132;47.946;10.394;2023-12-14T09:42:59;2.60;;;2.40;;
18013;SDS011;9132;47.946;10.394;2023-12-14T09:45:27;3.17;;;2.60;;
18013;SDS011;9132;47.946;10.394;2023-12-14T09:47:55;3.30;;;3.00;;
18013;SDS011;9132;47.946;10.394;2023-12-14T09:50:24;3.93;;;3.37;;
18013;SDS011;9132;47.946;10.394;2023-12-14T09:52:51;4.40;;;2.70;;
18013;SDS011;9132;47.946;10.394;2023-12-14T09:55:17;3.40;;;2.80;;
18013;SDS011;9132;47.946;10.394;2023-12-14T09:57:44;3.60;;;3.30;;
18013;SDS011;9132;47.946;10.394;2023-12-14T10:00:11;4.17;;;3.77;;
18013;SDS011;9132;47.946;10.394;2023-12-14T10:02:39;3.73;;;3.33;;
18013;SDS011;9132;47.946;10.394;2023-12-14T10:05:08;3.83;;;3.23;;
18013;SDS011;9132;47.946;10.394;2023-12-14T10:07:39;4.10;;;3.70;;
18013;SDS011;9132;47.946;10.394;2023-12-14T10:10:11;2.50;;;2.23;;
18013;SDS011;9132;47.946;10.394;2023-12-14T10:12:50;2.30;;;2.10;;
18013;SDS011;9132;47.946;10.394;2023-12-14T10:15:18;2.57;;;2.30;;
18013;SDS011;9132;47.946;10.394;2023-12-14T10:17:45;2.70;;;2.23;;
18013;SDS011;9132;47.946;10.394;2023-12-14T10:20:19;1.50;;;1.40;;
18013;SDS011;9132;47.946;10.394;2023-12-14T10:22:48;2.00;;;1.80;;
18013;SDS011;9132;47.946;10.394;2023-12-14T10:25:15;1.83;;;1.67;;
18013;SDS011;9132;47.946;10.394;2023-12-14T10:27:45;1.57;;;1.40;;
18013;SDS011;9132;47.946;10.394;2023-12-14T10:30:13;1.70;;;1.60;;
18013;SDS011;9132;47.946;10.394;2023-12-14T10:32:40;1.63;;;1.53;;
18013;SDS011;9132;47.946;10.394;2023-12-14T10:35:07;1.70;;;1.60;;
18013;SDS011;9132;47.946;10.394;2023-12-14T10:37:34;2.00;;;1.80;;
18013;SDS011;9132;47.946;10.394;2023-12-14T10:40:05;2.00;;;1.80;;
18013;SDS011;9132;47.946;10.394;2023-12-14T10:42:35;2.03;;;1.83;;
18013;SDS011;9132;47.946;10.394;2023-12-14T10:45:02;2.00;;;1.80;;
18013;SDS011;9132;47.946;10.394;2023-12-14T10:47:30;2.00;;;1.80;;
18013;SDS011;9132;47.946;10.394;2023-12-14T10:49:56;2.10;;;1.90;;
18013;SDS011;9132;47.946;10.394;2023-12-14T10:52:26;2.50;;;2.03;;
18013;SDS011;9132;47.946;10.394;2023-12-14T10:54:56;9.87;;;8.73;;
18013;SDS011;9132;47.946;10.394;2023-12-14T10:57:29;3.50;;;3.20;;
18013;SDS011;9132;47.946;10.394;2023-12-14T10:59:57;3.23;;;2.70;;
18013;SDS011;9132;47.946;10.394;2023-12-14T11:02:24;2.73;;;2.40;;
18013;SDS011;9132;47.946;10.394;2023-12-14T11:04:54;3.30;;;3.00;;
18013;SDS011;9132;47.946;10.394;2023-12-14T11:10:12;3.30;;;3.00;;
18013;SDS011;9132;47.946;10.394;2023-12-14T11:12:51;2.90;;;2.60;;
18013;SDS011;9132;47.946;10.394;2023-12-14T11:15:21;3.50;;;3.20;;
18013;SDS011;9132;47.946;10.394;2023-12-14T11:20:50;5.73;;;3.30;;
18013;SDS011;9132;47.946;10.394;2023-12-14T11:23:18;3.73;;;2.80;;
18013;SDS011;9132;47.946;10.394;2023-12-14T11:25:56;3.83;;;3.53;;
18013;SDS011;9132;47.946;10.394;2023-12-14T11:28:25;2.00;;;1.80;;
18013;SDS011;9132;47.946;10.394;2023-12-14T11:30:52;2.07;;;1.87;;
18013;SDS011;9132;47.946;10.394;2023-12-14T11:33:18;1.83;;;1.73;;
18013;SDS011;9132;47.946;10.394;2023-12-14T11:35:45;2.57;;;2.03;;
18013;SDS011;9132;47.946;10.394;2023-12-14T11:38:11;2.77;;;2.50;;
18013;SDS011;9132;47.946;10.394;2023-12-14T11:40:38;3.00;;;2.70;;
18013;SDS011;9132;47.946;10.394;2023-12-14T11:43:05;4.53;;;2.37;;
18013;SDS011;9132;47.946;10.394;2023-12-14T11:45:34;2.67;;;2.47;;
18013;SDS011;9132;47.946;10.394;2023-12-14T11:48:02;2.70;;;2.50;;
18013;SDS011;9132;47.946;10.394;2023-12-14T11:50:30;3.80;;;2.70;;
18013;SDS011;9132;47.946;10.394;2023-12-14T11:52:57;3.03;;;2.73;;
18013;SDS011;9132;47.946;10.394;2023-12-14T11:55:24;3.53;;;2.90;;
18013;SDS011;9132;47.946;10.394;2023-12-14T11:57:51;4.20;;;2.70;;
18013;SDS011;9132;47.946;10.394;2023-12-14T12:00:21;5.30;;;3.40;;
18013;SDS011;9132;47.946;10.394;2023-12-14T12:02:50;3.30;;;3.00;;
18013;SDS011;9132;47.946;10.394;2023-12-14T12:05:19;3.90;;;3.37;;
18013;SDS011;9132;47.946;10.394;2023-12-14T12:08:01;4.93;;;3.70;;
18013;SDS011;9132;47.946;10.394;2023-12-14T12:10:29;4.10;;;3.67;;
18013;SDS011;9132;47.946;10.394;2023-12-14T12:12:58;4.43;;;3.90;;
18013;SDS011;9132;47.946;10.394;2023-12-14T12:15:26;4.50;;;3.30;;
18013;SDS011;9132;47.946;10.394;2023-12-14T12:17:54;4.87;;;3.37;;
18013;SDS011;9132;47.946;10.394;2023-12-14T12:20:20;4.37;;;3.30;;
18013;SDS011;9132;47.946;10.394;2023-12-14T12:22:47;3.20;;;2.70;;
18013;SDS011;9132;47.946;10.394;2023-12-14T12:25:13;3.53;;;2.80;;
18013;SDS011;9132;47.946;10.394;2023-12-14T12:27:40;4.07;;;2.60;;
18013;SDS011;9132;47.946;10.394;2023-12-14T12:30:07;2.50;;;2.30;;
18013;SDS011;9132;47.946;10.394;2023-12-14T12:32:34;3.13;;;2.30;;
18013;SDS011;9132;47.946;10.394;2023-12-14T12:35:02;2.70;;;2.27;;
18013;SDS011;9132;47.946;10.394;2023-12-14T12:37:29;3.00;;;2.47;;
18013;SDS011;9132;47.946;10.394;2023-12-14T12:39:56;3.73;;;2.90;;
18013;SDS011;9132;47.946;10.394;2023-12-14T12:42:22;3.20;;;2.90;;
18013;SDS011;9132;47.946;10.394;2023-12-14T12:44:50;3.17;;;2.87;;
18013;SDS011;9132;47.946;10.394;2023-12-14T12:47:17;3.77;;;3.37;;
18013;SDS011;9132;47.946;10.394;2023-12-14T12:49:43;3.70;;;3.17;;
18013;SDS011;9132;47.946;10.394;2023-12-14T12:52:11;13.03;;;10.17;;
18013;SDS011;9132;47.946;10.394;2023-12-14T12:54:38;12.20;;;10.83;;
18013;SDS011;9132;47.946;10.394;2023-12-14T12:57:05;4.57;;;3.60;;
18013;SDS011;9132;47.946;10.394;2023-12-14T12:59:31;3.70;;;3.13;;
18013;SDS011;9132;47.946;10.394;2023-12-14T13:01:58;5.87;;;3.50;;
18013;SDS011;9132;47.946;10.394;2023-12-14T13:04:25;9.23;;;7.87;;
18013;SDS011;9132;47.946;10.394;2023-12-14T13:06:52;3.87;;;3.50;;
18013;SDS011;9132;47.946;10.394;2023-12-14T13:09:20;4.20;;;3.33;;
18013;SDS011;9132;47.946;10.394;2023-12-14T13:11:46;4.93;;;3.73;;
18013;SDS011;9132;47.946;10.394;2023-12-14T13:14:13;4.47;;;3.93;;
18013;SDS011;9132;47.946;10.394;2023-12-14T13:16:40;4.67;;;3.93;;
18013;SDS011;9132;47.946;10.394;2023-12-14T13:19:07;4.20;;;3.60;;
18013;SDS011;9132;47.946;10.394;2023-12-14T13:21:34;4.20;;;2.93;;
18013;SDS011;9132;47.946;10.394;2023-12-14T13:24:01;3.17;;;2.87;;
18013;SDS011;9132;47.946;10.394;2023-12-14T13:26:30;5.80;;;3.97;;
18013;SDS011;9132;47.946;10.394;2023-12-14T13:28:56;4.97;;;3.47;;
18013;SDS011;9132;47.946;10.394;2023-12-14T13:31:23;3.07;;;2.77;;
18013;SDS011;9132;47.946;10.394;2023-12-14T13:33:50;3.40;;;2.67;;
18013;SDS011;9132;47.946;10.394;2023-12-14T13:36:17;3.60;;;2.60;;
18013;SDS011;9132;47.946;10.394;2023-12-14T13:38:44;2.93;;;2.63;;
18013;SDS011;9132;47.946;10.394;2023-12-14T13:41:11;3.50;;;2.30;;
18013;SDS011;9132;47.946;10.394;2023-12-14T13:43:38;3.60;;;2.13;;
18013;SDS011;9132;47.946;10.394;2023-12-14T13:46:05;3.23;;;2.10;;
18013;SDS011;9132;47.946;10.394;2023-12-14T13:48:32;2.60;;;2.30;;
18013;SDS011;9132;47.946;10.394;2023-12-14T13:50:58;3.10;;;2.07;;
18013;SDS011;9132;47.946;10.394;2023-12-14T13:53:25;5.43;;;2.03;;
18013;SDS011;9132;47.946;10.394;2023-12-14T13:55:51;3.33;;;1.97;;
18013;SDS011;9132;47.946;10.394;2023-12-14T13:58:18;3.70;;;2.30;;
18013;SDS011;9132;47.946;10.394;2023-12-14T14:00:46;3.73;;;2.20;;
18013;SDS011;9132;47.946;10.394;2023-12-14T14:03:12;3.90;;;2.00;;
18013;SDS011;9132;47.946;10.394;2023-12-14T14:05:39;2.87;;;2.00;;
18013;SDS011;9132;47.946;10.394;2023-12-14T14:08:05;4.67;;;2.70;;
18013;SDS011;9132;47.946;10.394;2023-12-14T14:10:32;3.57;;;2.80;;
18013;SDS011;9132;47.946;10.394;2023-12-14T14:12:58;2.60;;;2.07;;
18013;SDS011;9132;47.946;10.394;2023-12-14T14:15:25;1.90;;;1.80;;
18013;SDS011;9132;47.946;10.394;2023-12-14T14:17:53;2.67;;;2.03;;
18013;SDS011;9132;47.946;10.394;2023-12-14T14:20:20;2.20;;;1.90;;
18013;SDS011;9132;47.946;10.394;2023-12-14T14:22:48;1.93;;;1.80;;
18013;SDS011;9132;47.946;10.394;2023-12-14T14:25:15;2.70;;;1.93;;
18013;SDS011;9132;47.946;10.394;2023-12-14T14:27:42;3.33;;;2.00;;
18013;SDS011;9132;47.946;10.394;2023-12-14T14:30:12;3.10;;;1.87;;
18013;SDS011;9132;47.946;10.394;2023-12-14T14:32:38;2.00;;;1.80;;
18013;SDS011;9132;47.946;10.394;2023-12-14T14:35:07;3.03;;;2.33;;
18013;SDS011;9132;47.946;10.394;2023-12-14T14:37:37;1.03;;;1.03;;
18013;SDS011;9132;47.946;10.394;2023-12-14T14:40:05;1.67;;;1.40;;
18013;SDS011;9132;47.946;10.394;2023-12-14T14:42:32;1.80;;;1.47;;
18013;SDS011;9132;47.946;10.394;2023-12-14T14:44:59;2.10;;;1.80;;
18013;SDS011;9132;47.946;10.394;2023-12-14T14:47:26;1.10;;;0.80;;
18013;SDS011;9132;47.946;10.394;2023-12-14T14:49:53;1.27;;;1.10;;
18013;SDS011;9132;47.946;10.394;2023-12-14T14:52:23;3.40;;;2.27;;
18013;SDS011;9132;47.946;10.394;2023-12-14T14:54:50;1.47;;;1.07;;